createdAt,value
2022-09-26T00:01:35.180Z,6.53
2022-09-26T00:04:16.633Z,6.05
2022-09-26T00:06:44.403Z,5.32
2022-09-26T00:09:13.165Z,4.97
2022-09-26T00:11:42.380Z,4.18
2022-09-26T00:14:14.372Z,3.63
2022-09-26T00:16:42.686Z,3.08
2022-09-26T00:19:10.566Z,4.07
2022-09-26T00:21:38.924Z,4.10
2022-09-26T00:24:07.434Z,3.38
2022-09-26T00:26:36.441Z,4.32
2022-09-26T00:29:07.412Z,3.83
2022-09-26T00:31:39.554Z,3.42
2022-09-26T00:34:07.552Z,4.13
2022-09-26T00:36:38.438Z,4.65
2022-09-26T00:39:08.626Z,4.68
2022-09-26T00:41:37.384Z,5.50
2022-09-26T00:44:54.533Z,6.28
2022-09-26T00:47:28.933Z,4.20
2022-09-26T00:50:04.745Z,3.58
2022-09-26T00:52:45.471Z,3.00
2022-09-26T00:55:18.883Z,3.72
2022-09-26T00:57:57.688Z,3.05
2022-09-26T01:00:25.534Z,4.95
2022-09-26T01:02:54.036Z,4.88
2022-09-26T01:05:24.036Z,5.35
2022-09-26T01:07:53.997Z,6.43
2022-09-26T01:10:23.334Z,4.30
2022-09-26T01:12:52.558Z,4.28
2022-09-26T01:15:20.427Z,4.75
2022-09-26T01:17:50.316Z,5.18
2022-09-26T01:20:56.975Z,3.53
2022-09-26T01:23:44.875Z,5.03
2022-09-26T01:26:15.510Z,2.80
2022-09-26T01:28:58.216Z,3.80
2022-09-26T01:32:23.028Z,1.90
2022-09-26T01:35:21.412Z,1.80
2022-09-26T01:38:20.305Z,2.80
2022-09-26T01:41:24.979Z,2.00
2022-09-26T01:44:17.490Z,2.72
2022-09-26T01:46:54.009Z,2.00
2022-09-26T01:49:31.750Z,2.35
2022-09-26T01:52:22.843Z,2.70
2022-09-26T01:55:01.973Z,1.90
2022-09-26T01:57:35.008Z,1.20
2022-09-26T02:00:07.915Z,2.28
2022-09-26T02:02:45.727Z,1.67
2022-09-26T02:05:25.482Z,3.50
2022-09-26T02:07:58.989Z,1.40
2022-09-26T02:10:33.067Z,2.53
2022-09-26T02:13:08.397Z,1.90
2022-09-26T02:15:37.866Z,1.60
2022-09-26T02:18:18.935Z,1.40
2022-09-26T02:20:54.587Z,1.65
2022-09-26T02:23:22.334Z,2.05
2022-09-26T02:25:50.042Z,1.20
2022-09-26T02:28:18.004Z,1.23
2022-09-26T02:30:49.836Z,2.20
2022-09-26T02:33:18.027Z,3.00
2022-09-26T02:35:55.197Z,1.92
2022-09-26T02:38:26.835Z,1.55
2022-09-26T02:41:29.745Z,1.05
2022-09-26T02:44:21.684Z,2.75
2022-09-26T02:47:22.353Z,2.17
2022-09-26T02:50:19.766Z,2.28
2022-09-26T02:53:29.285Z,2.42
2022-09-26T02:56:30.113Z,2.35
2022-09-26T02:59:15.681Z,1.73
2022-09-26T03:02:10.695Z,1.45
2022-09-26T03:04:58.711Z,3.47
2022-09-26T03:07:37.671Z,1.80
2022-09-26T03:10:09.068Z,2.05
2022-09-26T03:12:38.232Z,1.48
2022-09-26T03:15:08.256Z,1.95
2022-09-26T03:17:38.114Z,3.00
2022-09-26T03:20:11.386Z,2.10
2022-09-26T03:22:45.212Z,3.17
2022-09-26T03:25:25.178Z,2.33
2022-09-26T03:28:04.318Z,1.65
2022-09-26T03:30:32.279Z,3.90
2022-09-26T03:33:18.399Z,2.63
2022-09-26T03:35:46.721Z,3.67
2022-09-26T03:38:14.820Z,1.45
2022-09-26T03:40:48.963Z,1.92
2022-09-26T03:43:51.905Z,2.13
2022-09-26T03:46:20.038Z,4.47
2022-09-26T03:48:48.410Z,3.70
2022-09-26T03:51:18.355Z,2.10
2022-09-26T03:53:47.309Z,2.80
2022-09-26T03:56:19.316Z,3.20
2022-09-26T03:58:49.277Z,2.65
2022-09-26T04:01:20.647Z,2.80
2022-09-26T04:03:51.033Z,2.50
2022-09-26T04:06:21.191Z,2.72
2022-09-26T04:08:52.411Z,2.30
2022-09-26T04:11:23.164Z,2.95
2022-09-26T04:13:53.655Z,3.60
2022-09-26T04:16:24.750Z,2.15
2022-09-26T04:18:58.741Z,1.75
2022-09-26T04:21:28.687Z,1.40
2022-09-26T04:23:56.574Z,2.75
2022-09-26T04:26:24.868Z,2.83
2022-09-26T04:28:56.417Z,2.53
2022-09-26T04:31:32.112Z,2.63
2022-09-26T04:34:11.463Z,3.28
2022-09-26T04:36:39.528Z,4.43
2022-09-26T04:39:07.208Z,2.15
2022-09-26T04:41:35.927Z,1.65
2022-09-26T04:44:03.796Z,1.70
2022-09-26T04:46:32.906Z,1.65
2022-09-26T04:49:02.192Z,0.80
2022-09-26T04:51:31.909Z,2.00
2022-09-26T04:54:00.242Z,1.92
2022-09-26T04:56:30.395Z,1.60
2022-09-26T04:58:59.345Z,1.88
2022-09-26T05:01:34.498Z,2.63
2022-09-26T05:04:02.581Z,2.00
2022-09-26T05:06:30.471Z,1.00
2022-09-26T05:09:00.570Z,2.17
2022-09-26T05:11:48.600Z,2.42
2022-09-26T05:14:16.377Z,1.98
2022-09-26T05:16:44.256Z,2.40
2022-09-26T05:19:15.025Z,2.10
2022-09-26T05:22:03.316Z,1.55
2022-09-26T05:24:49.704Z,3.10
2022-09-26T05:27:19.279Z,3.10
2022-09-26T05:29:47.120Z,4.32
2022-09-26T05:32:15.417Z,6.82
2022-09-26T05:34:43.304Z,5.25
2022-09-26T05:37:15.309Z,4.32
2022-09-26T05:40:02.927Z,5.43
2022-09-26T05:42:32.339Z,3.85
2022-09-26T05:45:03.463Z,3.65
2022-09-26T05:47:35.734Z,4.15
2022-09-26T05:50:09.948Z,3.17
2022-09-26T05:52:39.784Z,3.25
2022-09-26T05:55:12.071Z,2.05
2022-09-26T05:57:58.628Z,1.73
2022-09-26T06:00:34.418Z,2.67
2022-09-26T06:03:05.304Z,1.70
2022-09-26T06:05:43.537Z,2.00
2022-09-26T06:08:15.800Z,2.33
2022-09-26T06:10:50.758Z,3.50
2022-09-26T06:13:21.444Z,2.70
2022-09-26T06:15:50.344Z,2.28
2022-09-26T06:18:18.563Z,4.43
2022-09-26T06:20:46.134Z,5.47
2022-09-26T06:23:14.484Z,5.40
2022-09-26T06:25:46.250Z,5.10
2022-09-26T06:28:14.006Z,3.90
2022-09-26T06:30:41.785Z,3.42
2022-09-26T06:33:38.672Z,1.95
2022-09-26T06:36:34.137Z,1.92
2022-09-26T06:39:02.133Z,3.35
2022-09-26T06:41:35.296Z,1.95
2022-09-26T06:44:10.474Z,2.00
2022-09-26T06:46:48.932Z,3.53
2022-09-26T06:49:22.338Z,1.83
2022-09-26T06:52:12.673Z,1.95
2022-09-26T06:54:40.533Z,3.88
2022-09-26T06:57:12.853Z,2.40
2022-09-26T06:59:42.377Z,4.85
2022-09-26T07:02:19.378Z,5.03
2022-09-26T07:05:02.662Z,5.72
2022-09-26T07:07:43.167Z,3.75
2022-09-26T07:10:21.341Z,2.75
2022-09-26T07:13:05.349Z,6.93
2022-09-26T07:15:35.060Z,5.72
2022-09-26T07:18:11.394Z,3.03
2022-09-26T07:20:57.782Z,4.38
2022-09-26T07:23:41.585Z,3.03
2022-09-26T07:26:09.265Z,3.78
2022-09-26T07:28:38.430Z,6.18
2022-09-26T07:31:06.222Z,3.10
2022-09-26T07:33:47.800Z,3.80
2022-09-26T07:36:18.666Z,3.47
2022-09-26T07:38:49.631Z,4.35
2022-09-26T07:41:19.505Z,3.42
2022-09-26T07:44:41.170Z,5.07
2022-09-26T07:46:53.792Z,5.30
2022-09-26T07:49:40.037Z,5.78
2022-09-26T07:52:10.432Z,2.00
2022-09-26T07:55:19.061Z,3.60
2022-09-26T07:57:52.921Z,4.53
2022-09-26T08:00:30.231Z,2.83
2022-09-26T08:03:05.478Z,6.50
2022-09-26T08:05:37.324Z,5.88
2022-09-26T08:08:05.136Z,4.22
2022-09-26T08:10:51.276Z,10.18
2022-09-26T08:13:55.379Z,2.90
2022-09-26T08:16:42.140Z,6.40
2022-09-26T08:19:17.662Z,4.88
2022-09-26T08:21:46.212Z,5.10
2022-09-26T08:24:14.313Z,3.78
2022-09-26T08:27:23.269Z,3.70
2022-09-26T08:29:51.812Z,4.10
2022-09-26T08:32:20.740Z,4.45
2022-09-26T08:34:49.318Z,2.60
2022-09-26T08:37:31.849Z,3.10
2022-09-26T08:41:12.243Z,3.08
2022-09-26T08:44:22.069Z,20.30
2022-09-26T08:47:49.389Z,20.98
2022-09-26T08:50:47.656Z,14.50
2022-09-26T08:53:32.471Z,12.02
2022-09-26T08:56:01.400Z,10.80
2022-09-26T08:58:43.053Z,10.15
2022-09-26T09:01:31.367Z,9.85
2022-09-26T09:04:23.675Z,6.50
2022-09-26T09:06:58.704Z,6.40
2022-09-26T09:09:26.586Z,3.88
2022-09-26T09:12:32.321Z,3.85
2022-09-26T09:15:29.051Z,4.35
2022-09-26T09:18:27.874Z,7.03
2022-09-26T09:22:07.590Z,8.70
2022-09-26T09:25:05.073Z,4.50
2022-09-26T09:28:04.028Z,6.00
2022-09-26T09:30:45.371Z,3.72
2022-09-26T09:33:48.338Z,3.92
2022-09-26T09:36:49.926Z,3.83
2022-09-26T09:39:35.884Z,4.35
2022-09-26T09:42:19.161Z,4.25
2022-09-26T09:44:55.098Z,7.70
2022-09-26T09:47:23.009Z,14.90
2022-09-26T09:49:51.735Z,3.22
2022-09-26T09:52:22.341Z,2.88
2022-09-26T09:55:04.679Z,2.20
2022-09-26T09:58:02.199Z,3.92
2022-09-26T10:00:33.906Z,6.90
2022-09-26T10:03:27.738Z,4.40
2022-09-26T10:06:03.607Z,3.65
2022-09-26T10:08:42.839Z,4.13
2022-09-26T10:11:35.248Z,4.13
2022-09-26T10:14:29.875Z,3.45
2022-09-26T10:17:09.207Z,6.43
2022-09-26T10:19:45.243Z,4.35
2022-09-26T10:22:25.272Z,4.80
2022-09-26T10:25:15.149Z,2.53
2022-09-26T10:27:53.225Z,14.55
2022-09-26T10:30:30.428Z,2.33
2022-09-26T10:33:05.418Z,4.43
2022-09-26T10:35:44.315Z,1.60
2022-09-26T10:38:22.580Z,2.85
2022-09-26T10:41:03.747Z,3.22
2022-09-26T10:43:38.069Z,3.42
2022-09-26T10:46:23.598Z,3.60
2022-09-26T10:49:17.194Z,4.28
2022-09-26T10:52:16.067Z,5.07
2022-09-26T10:54:55.532Z,4.00
2022-09-26T10:57:45.720Z,3.75
2022-09-26T11:00:33.963Z,4.72
2022-09-26T11:03:01.734Z,5.40
2022-09-26T11:05:54.699Z,3.88
2022-09-26T11:08:29.429Z,3.90
2022-09-26T11:11:21.786Z,5.00
2022-09-26T11:13:58.575Z,6.40
2022-09-26T11:16:28.247Z,2.33
2022-09-26T11:19:26.999Z,2.92
2022-09-26T11:22:34.664Z,4.95
2022-09-26T11:25:28.835Z,5.13
2022-09-26T11:28:11.211Z,3.65
2022-09-26T11:31:03.872Z,4.05
2022-09-26T11:33:34.746Z,3.13
2022-09-26T11:36:47.200Z,2.97
2022-09-26T11:39:40.883Z,4.03
2022-09-26T11:42:26.034Z,2.88
2022-09-26T11:45:00.655Z,2.95
2022-09-26T11:47:56.259Z,1.40
2022-09-26T11:50:59.454Z,2.47
2022-09-26T11:54:39.631Z,2.00
2022-09-26T11:57:35.158Z,3.78
2022-09-26T12:00:07.841Z,3.17
2022-09-26T12:02:56.276Z,6.78
2022-09-26T12:05:49.061Z,14.60
2022-09-26T12:09:00.939Z,13.52
2022-09-26T12:11:38.584Z,7.78
2022-09-26T12:14:52.610Z,9.00
2022-09-26T12:17:36.414Z,5.30
2022-09-26T12:20:27.497Z,3.45
2022-09-26T12:23:05.861Z,5.30
2022-09-26T12:25:50.151Z,5.32
2022-09-26T12:28:27.226Z,3.25
2022-09-26T12:31:18.664Z,7.90
2022-09-26T12:34:02.483Z,8.20
2022-09-26T12:36:51.028Z,14.55
2022-09-26T12:39:40.751Z,13.65
2022-09-26T12:42:25.439Z,10.38
2022-09-26T12:45:26.805Z,8.32
2022-09-26T12:48:03.721Z,7.00
2022-09-26T12:53:52.285Z,5.30
2022-09-26T12:56:54.888Z,4.78
2022-09-26T12:59:43.522Z,4.60
2022-09-26T13:02:46.182Z,2.63
2022-09-26T13:05:41.845Z,4.70
2022-09-26T13:08:43.589Z,4.13
2022-09-26T13:11:44.330Z,3.10
2022-09-26T13:15:00.880Z,2.25
2022-09-26T13:17:34.995Z,4.25
2022-09-26T13:20:14.833Z,3.58
2022-09-26T13:23:01.036Z,2.30
2022-09-26T13:25:49.291Z,2.72
2022-09-26T13:28:34.227Z,4.25
2022-09-26T13:31:09.853Z,2.20
2022-09-26T13:33:56.894Z,3.72
2022-09-26T13:36:26.235Z,2.78
2022-09-26T13:39:24.429Z,2.60
2022-09-26T13:42:41.704Z,2.90
2022-09-26T13:45:19.502Z,3.45
2022-09-26T13:47:50.811Z,2.15
2022-09-26T13:50:26.146Z,1.92
2022-09-26T13:53:05.295Z,1.77
2022-09-26T13:55:33.888Z,2.00
2022-09-26T13:58:08.544Z,2.10
2022-09-26T14:00:40.642Z,2.95
2022-09-26T14:03:13.817Z,3.25
2022-09-26T14:05:41.503Z,2.53
2022-09-26T14:08:43.318Z,2.22
2022-09-26T14:11:21.607Z,1.55
2022-09-26T14:14:17.012Z,3.97
2022-09-26T14:16:46.671Z,2.15
2022-09-26T14:19:39.432Z,3.67
2022-09-26T14:22:20.643Z,2.47
2022-09-26T14:24:49.445Z,4.40
2022-09-26T14:27:28.546Z,1.98
2022-09-26T14:30:02.144Z,3.55
2022-09-26T14:32:38.666Z,1.92
2022-09-26T14:35:20.289Z,2.53
2022-09-26T14:37:50.745Z,1.98
2022-09-26T14:40:21.309Z,2.30
2022-09-26T14:42:58.141Z,3.40
2022-09-26T14:48:11.968Z,6.15
2022-09-26T14:50:50.661Z,7.72
2022-09-26T14:53:34.185Z,3.88
2022-09-26T14:56:18.272Z,4.82
2022-09-26T14:58:49.954Z,6.03
2022-09-26T15:01:20.551Z,8.02
2022-09-26T15:04:17.382Z,8.52
2022-09-26T15:06:48.950Z,9.52
2022-09-26T15:09:30.866Z,8.23
2022-09-26T15:12:02.461Z,3.42
2022-09-26T15:14:50.122Z,4.65
2022-09-26T15:17:25.570Z,3.42
2022-09-26T15:19:57.303Z,4.85
2022-09-26T15:22:28.271Z,3.28
2022-09-26T15:25:11.193Z,1.90
2022-09-26T15:27:46.119Z,2.50
2022-09-26T15:30:27.209Z,2.92
2022-09-26T15:32:59.109Z,5.35
2022-09-26T15:35:27.342Z,5.97
2022-09-26T15:38:12.063Z,7.05
2022-09-26T15:40:39.853Z,2.40
2022-09-26T15:43:13.936Z,2.38
2022-09-26T15:45:48.433Z,2.53
2022-09-26T15:48:19.234Z,3.15
2022-09-26T15:50:49.443Z,7.47
2022-09-26T15:53:23.146Z,3.58
2022-09-26T15:56:01.033Z,3.20
2022-09-26T15:58:29.104Z,6.22
2022-09-26T16:00:58.607Z,2.83
2022-09-26T16:03:26.212Z,3.25
2022-09-26T16:05:55.043Z,3.60
2022-09-26T16:08:25.379Z,3.10
2022-09-26T16:10:58.581Z,3.33
2022-09-26T16:13:31.482Z,2.85
2022-09-26T16:16:03.059Z,4.65
2022-09-26T16:18:39.149Z,4.25
2022-09-26T16:21:18.536Z,6.33
2022-09-26T16:23:52.071Z,5.60
2022-09-26T16:26:43.436Z,6.05
2022-09-26T16:29:11.068Z,4.53
2022-09-26T16:31:47.081Z,4.60
2022-09-26T16:34:23.220Z,4.57
2022-09-26T16:36:51.320Z,2.75
2022-09-26T16:39:21.215Z,3.97
2022-09-26T16:42:02.777Z,3.75
2022-09-26T16:44:36.463Z,3.45
2022-09-26T16:47:40.561Z,2.03
2022-09-26T16:50:33.326Z,3.25
2022-09-26T16:53:06.470Z,4.32
2022-09-26T16:55:37.693Z,6.00
2022-09-26T16:58:06.202Z,3.47
2022-09-26T17:00:53.769Z,3.05
2022-09-26T17:03:26.693Z,3.92
2022-09-26T17:05:56.312Z,3.05
2022-09-26T17:08:26.547Z,3.30
2022-09-26T17:10:57.335Z,2.55
2022-09-26T17:13:27.924Z,3.90
2022-09-26T17:15:57.702Z,7.40
2022-09-26T17:18:29.434Z,7.65
2022-09-26T17:20:59.226Z,6.40
2022-09-26T17:23:40.653Z,7.40
2022-09-26T17:26:18.273Z,9.32
2022-09-26T17:28:46.334Z,7.57
2022-09-26T17:31:19.881Z,7.50
2022-09-26T17:33:52.520Z,6.80
2022-09-26T17:36:27.338Z,6.50
2022-09-26T17:38:59.539Z,5.57
2022-09-26T17:41:29.827Z,4.15
2022-09-26T17:44:00.546Z,7.63
2022-09-26T17:46:29.111Z,4.45
2022-09-26T17:48:57.137Z,3.20
2022-09-26T17:51:26.249Z,6.43
2022-09-26T17:53:57.489Z,8.20
2022-09-26T17:56:26.427Z,4.65
2022-09-26T17:58:54.445Z,7.65
2022-09-26T18:01:25.424Z,14.15
2022-09-26T18:03:58.055Z,5.88
2022-09-26T18:06:29.106Z,7.85
2022-09-26T18:08:59.895Z,5.15
2022-09-26T18:11:27.679Z,6.30
2022-09-26T18:13:55.452Z,8.57
2022-09-26T18:16:23.521Z,7.22
2022-09-26T18:18:51.667Z,6.60
2022-09-26T18:21:19.978Z,11.25
2022-09-26T18:23:52.680Z,9.60
2022-09-26T18:26:30.653Z,5.70
2022-09-26T18:29:06.710Z,5.72
2022-09-26T18:31:38.547Z,6.03
2022-09-26T18:34:12.867Z,6.32
2022-09-26T18:36:40.646Z,5.75
2022-09-26T18:39:08.567Z,5.20
2022-09-26T18:41:37.131Z,5.40
2022-09-26T18:44:05.597Z,3.92
2022-09-26T18:46:34.166Z,6.25
2022-09-26T18:49:06.389Z,7.47
2022-09-26T18:51:35.051Z,7.32
2022-09-26T18:54:07.186Z,6.40
2022-09-26T18:56:55.411Z,8.00
2022-09-26T18:59:26.902Z,5.55
2022-09-26T19:01:59.960Z,8.27
2022-09-26T19:04:30.748Z,4.97
2022-09-26T19:07:06.106Z,5.63
2022-09-26T19:09:35.790Z,3.88
2022-09-26T19:12:05.072Z,5.47
2022-09-26T19:14:32.872Z,5.93
2022-09-26T19:17:00.761Z,6.97
2022-09-26T19:19:32.612Z,7.53
2022-09-26T19:22:08.215Z,5.00
2022-09-26T19:24:48.143Z,5.78
2022-09-26T19:27:18.628Z,5.88
2022-09-26T19:30:08.183Z,4.53
2022-09-26T19:32:44.819Z,7.20
2022-09-26T19:35:22.000Z,7.82
2022-09-26T19:37:49.814Z,7.35
2022-09-26T19:40:19.604Z,10.60
2022-09-26T19:42:47.579Z,9.27
2022-09-26T19:45:16.365Z,7.32
2022-09-26T19:47:47.696Z,7.15
2022-09-26T19:50:20.140Z,6.57
2022-09-26T19:52:50.763Z,6.75
2022-09-26T19:55:24.575Z,5.93
2022-09-26T19:58:00.603Z,4.90
2022-09-26T20:00:29.344Z,3.70
2022-09-26T20:02:57.414Z,3.55
2022-09-26T20:05:26.591Z,5.88
2022-09-26T20:07:54.309Z,5.65
2022-09-26T20:10:25.497Z,4.80
2022-09-26T20:12:53.911Z,5.03
2022-09-26T20:15:21.573Z,6.05
2022-09-26T20:17:49.835Z,6.72
2022-09-26T20:20:20.118Z,5.95
2022-09-26T20:22:48.678Z,4.60
2022-09-26T20:25:26.431Z,5.50
2022-09-26T20:27:55.482Z,6.22
2022-09-26T20:30:42.190Z,4.38
2022-09-26T20:33:11.347Z,5.65
2022-09-26T20:35:46.421Z,6.13
2022-09-26T20:38:30.761Z,4.85
2022-09-26T20:41:12.105Z,4.15
2022-09-26T20:43:44.712Z,2.60
2022-09-26T20:46:12.849Z,2.70
2022-09-26T20:48:43.163Z,3.00
2022-09-26T20:51:23.716Z,3.63
2022-09-26T20:53:51.491Z,2.85
2022-09-26T20:56:21.391Z,2.33
2022-09-26T20:58:49.285Z,3.38
2022-09-26T21:01:19.507Z,5.40
2022-09-26T21:03:55.485Z,5.53
2022-09-26T21:06:26.888Z,5.95
2022-09-26T21:08:54.792Z,5.13
2022-09-26T21:11:22.747Z,3.63
2022-09-26T21:13:50.984Z,2.95
2022-09-26T21:16:21.612Z,2.97
2022-09-26T21:18:52.252Z,4.65
2022-09-26T21:21:24.601Z,4.82
2022-09-26T21:24:04.781Z,4.00
2022-09-26T21:26:33.696Z,3.85
2022-09-26T21:29:01.681Z,3.65
2022-09-26T21:31:32.751Z,2.97
2022-09-26T21:34:01.311Z,2.97
2022-09-26T21:36:35.516Z,2.60
2022-09-26T21:39:03.679Z,2.95
2022-09-26T21:41:31.705Z,3.70
2022-09-26T21:44:06.541Z,2.92
2022-09-26T21:46:34.365Z,2.28
2022-09-26T21:49:02.097Z,2.60
2022-09-26T21:51:30.580Z,2.22
2022-09-26T21:54:07.176Z,2.55
2022-09-26T21:56:40.359Z,2.13
2022-09-26T21:59:08.051Z,2.63
2022-09-26T22:01:35.877Z,2.25
2022-09-26T22:04:03.679Z,1.63
2022-09-26T22:06:33.415Z,1.65
2022-09-26T22:09:01.114Z,1.73
2022-09-26T22:11:28.963Z,3.38
2022-09-26T22:13:56.829Z,2.33
2022-09-26T22:16:25.574Z,2.55
2022-09-26T22:18:53.511Z,3.63
2022-09-26T22:21:21.347Z,2.63
2022-09-26T22:23:50.545Z,4.80
2022-09-26T22:26:19.726Z,6.78
2022-09-26T22:28:47.644Z,5.75
2022-09-26T22:31:15.726Z,4.13
2022-09-26T22:33:43.451Z,3.72
2022-09-26T22:36:12.110Z,2.88
2022-09-26T22:38:40.620Z,2.95
2022-09-26T22:41:08.716Z,2.53
2022-09-26T22:43:37.018Z,2.35
2022-09-26T22:46:10.450Z,2.17
2022-09-26T22:48:43.600Z,2.17
2022-09-26T22:51:11.907Z,1.77
2022-09-26T22:53:40.837Z,2.92
2022-09-26T22:56:12.643Z,2.45
2022-09-26T22:58:43.671Z,2.67
2022-09-26T23:01:14.888Z,3.75
2022-09-26T23:03:42.844Z,2.30
2022-09-26T23:06:11.254Z,2.15
2022-09-26T23:08:39.088Z,2.88
2022-09-26T23:11:08.487Z,3.30
2022-09-26T23:13:36.296Z,2.70
2022-09-26T23:16:13.407Z,1.90
2022-09-26T23:18:42.310Z,2.58
2022-09-26T23:21:12.855Z,3.03
2022-09-26T23:23:43.622Z,2.58
2022-09-26T23:26:21.525Z,2.28
2022-09-26T23:28:54.082Z,1.77
2022-09-26T23:31:23.181Z,2.97
2022-09-26T23:33:50.867Z,2.33
2022-09-26T23:36:19.718Z,2.92
2022-09-26T23:38:47.734Z,3.53
2022-09-26T23:41:15.337Z,2.30
2022-09-26T23:43:43.873Z,1.63
2022-09-26T23:46:11.577Z,3.17
2022-09-26T23:48:39.684Z,1.45
2022-09-26T23:51:07.380Z,1.77
2022-09-26T23:53:35.215Z,2.75
2022-09-26T23:56:09.122Z,3.58
2022-09-26T23:58:37.561Z,1.70
